CheckWX is a tool to help pilots better visualize weather data.  It is not intended as a substitute for an official pre-flight weather briefing.

08:54:36 UTC

LGIR METAR
Heraklion International Nikos Kazantzakis Airport
Heraklion, Greece
Current

35 mins ago

LGIR 260820Z 00000KT CAVOK 14/10 Q1028 NOSIG
Observed
Jan-26 @ 08:20 UTC
Visibility
10,000+ meters
Flight Rules
VFR
Cloud Levels
  • Clear skies
Temperature
14°C / 57°F
Dewpoint
10°C / 50°F
Humidity
77%
Altimeter
30.35" Hg
Pressure
1027.92 hPa
Previous

1 hour ago

LGIR 260750Z 00000KT CAVOK 14/10 Q1028 NOSIG
Observed
Jan-26 @ 07:50 UTC
Visibility
10,000+ meters
Flight Rules
VFR
Cloud Levels
  • Clear skies
Temperature
14°C / 57°F
Dewpoint
10°C / 50°F
Humidity
77%
Altimeter
30.35" Hg
Pressure
1027.92 hPa
Previous

2 hours ago

LGIR 260720Z 16005KT CAVOK 13/09 Q1027 NOSIG
Observed
Jan-26 @ 07:20 UTC
Wind
  • 160° at 5 KTS
Visibility
10,000+ meters
Flight Rules
VFR
Cloud Levels
  • Clear skies
Temperature
13°C / 55°F
Dewpoint
C / 48°F
Humidity
77%
Altimeter
30.32" Hg
Pressure
1026.92 hPa